createdAt,value
2023-03-05T00:00:40.392Z,52.50
2023-03-05T00:03:06.769Z,52.72
2023-03-05T00:05:33.180Z,53.89
2023-03-05T00:07:59.588Z,54.75
2023-03-05T00:10:25.974Z,54.13
2023-03-05T00:12:52.406Z,54.47
2023-03-05T00:15:18.830Z,54.35
2023-03-05T00:17:45.226Z,53.48
2023-03-05T00:20:11.774Z,53.65
2023-03-05T00:22:38.165Z,53.54
2023-03-05T00:25:04.606Z,53.33
2023-03-05T00:27:31.078Z,52.90
2023-03-05T00:29:57.499Z,53.03
2023-03-05T00:32:23.941Z,52.92
2023-03-05T00:34:50.456Z,52.61
2023-03-05T00:37:16.940Z,52.63
2023-03-05T00:39:43.331Z,53.22
2023-03-05T00:42:09.708Z,53.16
2023-03-05T00:44:36.076Z,53.10
2023-03-05T00:47:02.631Z,53.05
2023-03-05T00:49:29.067Z,53.06
2023-03-05T00:51:55.583Z,53.34
2023-03-05T00:54:22.007Z,53.31
2023-03-05T00:56:48.432Z,53.30
2023-03-05T00:59:14.845Z,53.46
2023-03-05T01:01:41.332Z,53.71
2023-03-05T01:04:07.752Z,53.59
2023-03-05T01:06:34.184Z,53.62
2023-03-05T01:09:00.580Z,54.12
2023-03-05T01:11:27.026Z,54.42
2023-03-05T01:13:53.450Z,54.47
2023-03-05T01:16:19.912Z,54.46
2023-03-05T01:18:46.389Z,54.77
2023-03-05T01:21:12.768Z,54.89
2023-03-05T01:23:39.229Z,55.59
2023-03-05T01:26:05.950Z,55.67
2023-03-05T01:28:32.451Z,55.49
2023-03-05T01:30:58.982Z,54.64
2023-03-05T01:33:25.410Z,54.21
2023-03-05T01:35:51.905Z,55.68
2023-03-05T01:38:18.294Z,55.61
2023-03-05T01:40:44.657Z,56.43
2023-03-05T01:43:11.058Z,56.37
2023-03-05T01:45:37.539Z,57.21
2023-03-05T01:48:04.081Z,58.06
2023-03-05T01:50:30.460Z,58.53
2023-03-05T01:52:56.879Z,59.43
2023-03-05T01:55:23.287Z,59.39
2023-03-05T01:57:49.691Z,60.08
2023-03-05T02:00:16.090Z,60.38
2023-03-05T02:02:42.503Z,60.02
2023-03-05T02:05:08.898Z,59.76
2023-03-05T02:07:35.322Z,59.22
2023-03-05T02:10:01.835Z,59.58
2023-03-05T02:12:28.263Z,60.45
2023-03-05T02:14:54.645Z,60.04
2023-03-05T02:17:21.029Z,60.14
2023-03-05T02:19:47.438Z,60.48
2023-03-05T02:22:13.981Z,60.52
2023-03-05T02:24:40.414Z,60.46
2023-03-05T02:27:06.845Z,59.72
2023-03-05T02:29:33.232Z,59.42
2023-03-05T02:31:59.795Z,59.02
2023-03-05T02:34:26.237Z,60.02
2023-03-05T02:36:52.621Z,60.59
2023-03-05T02:39:19.032Z,59.48
2023-03-05T02:41:45.454Z,60.78
2023-03-05T02:44:11.848Z,61.17
2023-03-05T02:46:38.215Z,61.43
2023-03-05T02:49:04.646Z,61.76
2023-03-05T02:51:31.375Z,60.24
2023-03-05T02:53:57.832Z,58.86
2023-03-05T02:56:24.256Z,58.53
2023-03-05T02:58:50.657Z,58.34
2023-03-05T03:01:17.088Z,57.07
2023-03-05T03:03:43.597Z,57.73
2023-03-05T03:06:10.065Z,57.82
2023-03-05T03:08:36.570Z,56.69
2023-03-05T03:11:02.931Z,55.93
2023-03-05T03:13:29.341Z,55.70
2023-03-05T03:15:55.705Z,55.54
2023-03-05T03:18:22.116Z,55.45
2023-03-05T03:20:48.549Z,55.17
2023-03-05T03:23:14.982Z,55.96
2023-03-05T03:25:41.415Z,55.18
2023-03-05T03:28:07.814Z,54.85
2023-03-05T03:30:34.458Z,55.10
2023-03-05T03:33:00.970Z,54.53
2023-03-05T03:35:27.413Z,54.73
2023-03-05T03:37:53.902Z,54.49
2023-03-05T03:40:20.330Z,54.51
2023-03-05T03:42:46.722Z,54.43
2023-03-05T03:45:13.109Z,54.71
2023-03-05T03:47:39.558Z,54.12
2023-03-05T03:50:06.064Z,54.51
2023-03-05T03:52:32.476Z,54.90
2023-03-05T03:54:58.921Z,55.14
2023-03-05T03:57:25.330Z,55.26
2023-03-05T03:59:51.761Z,55.25
2023-03-05T04:02:18.202Z,55.22
2023-03-05T04:04:44.720Z,55.23
2023-03-05T04:07:11.185Z,55.54
2023-03-05T04:09:37.603Z,55.25
2023-03-05T04:12:04.038Z,54.74
2023-03-05T04:14:30.431Z,54.89
2023-03-05T04:16:56.810Z,55.13
2023-03-05T04:19:23.232Z,54.95
2023-03-05T04:21:49.689Z,54.81
2023-03-05T04:24:16.359Z,55.08
2023-03-05T04:26:42.748Z,55.05
2023-03-05T04:29:09.174Z,54.89
2023-03-05T04:31:35.670Z,55.25
2023-03-05T04:34:02.132Z,55.18
2023-03-05T04:36:28.747Z,54.85
2023-03-05T04:38:55.255Z,54.84
2023-03-05T04:41:21.672Z,55.18
2023-03-05T04:43:48.046Z,54.88
2023-03-05T04:46:14.500Z,55.92
2023-03-05T04:48:40.911Z,56.02
2023-03-05T04:51:07.357Z,55.22
2023-03-05T04:53:33.778Z,55.16
2023-03-05T04:56:00.145Z,55.47
2023-03-05T04:58:26.608Z,55.22
2023-03-05T05:00:53.018Z,55.68
2023-03-05T05:03:19.412Z,55.37
2023-03-05T05:05:45.833Z,55.44
2023-03-05T05:08:12.206Z,55.70
2023-03-05T05:10:38.620Z,55.50
2023-03-05T05:13:05.181Z,55.74
2023-03-05T05:15:31.645Z,56.05
2023-03-05T05:17:58.056Z,56.17
2023-03-05T05:20:24.446Z,55.36
2023-03-05T05:22:50.855Z,55.58
2023-03-05T05:25:17.266Z,55.30
2023-03-05T05:27:43.776Z,55.19
2023-03-05T05:30:10.206Z,55.40
2023-03-05T05:32:36.772Z,55.21
2023-03-05T05:35:03.299Z,55.24
2023-03-05T05:37:29.696Z,55.48
2023-03-05T05:39:56.137Z,55.61
2023-03-05T05:42:22.537Z,55.53
2023-03-05T05:44:49.100Z,55.24
2023-03-05T05:47:15.664Z,55.13
2023-03-05T05:49:42.078Z,55.01
2023-03-05T05:52:08.496Z,55.17
2023-03-05T05:54:34.901Z,55.51
2023-03-05T05:57:01.329Z,55.46
2023-03-05T05:59:27.689Z,55.50
2023-03-05T06:01:54.127Z,56.13
2023-03-05T06:04:20.514Z,56.01
2023-03-05T06:06:46.912Z,55.79
2023-03-05T06:09:13.324Z,55.75
2023-03-05T06:11:39.730Z,55.51
2023-03-05T06:14:06.176Z,55.35
2023-03-05T06:16:32.668Z,55.26
2023-03-05T06:18:59.095Z,55.36
2023-03-05T06:21:25.496Z,55.52
2023-03-05T06:23:51.929Z,56.15
2023-03-05T06:26:18.551Z,55.79
2023-03-05T06:28:44.945Z,55.60
2023-03-05T06:31:11.433Z,55.23
2023-03-05T06:33:37.856Z,55.37
2023-03-05T06:36:04.258Z,55.49
2023-03-05T06:38:30.670Z,55.05
2023-03-05T06:40:57.057Z,55.75
2023-03-05T06:43:23.451Z,56.06
2023-03-05T06:45:51.166Z,55.43
2023-03-05T06:48:17.574Z,56.31
2023-03-05T06:50:43.991Z,55.90
2023-03-05T06:53:10.401Z,55.72
2023-03-05T06:55:36.878Z,55.91
2023-03-05T06:58:03.272Z,55.70
2023-03-05T07:00:29.807Z,55.58
2023-03-05T07:02:56.291Z,55.86
2023-03-05T07:05:22.716Z,56.27
2023-03-05T07:07:49.248Z,56.35
2023-03-05T07:10:15.696Z,56.29
2023-03-05T07:12:43.520Z,56.20
2023-03-05T07:15:10.010Z,56.44
2023-03-05T07:17:36.464Z,56.01
2023-03-05T07:20:02.897Z,55.70
2023-03-05T07:22:29.295Z,56.04
2023-03-05T07:24:55.690Z,56.08
2023-03-05T07:27:22.188Z,55.64
2023-03-05T07:29:49.039Z,55.23
2023-03-05T07:32:15.640Z,54.88
2023-03-05T07:34:42.046Z,55.24
2023-03-05T07:37:08.449Z,55.28
2023-03-05T07:39:34.891Z,55.07
2023-03-05T07:42:01.370Z,55.26
2023-03-05T07:44:27.939Z,55.06
2023-03-05T07:46:54.468Z,54.78
2023-03-05T07:49:20.871Z,54.90
2023-03-05T07:51:47.323Z,55.03
2023-03-05T07:54:13.759Z,55.35
2023-03-05T07:56:40.226Z,54.76
2023-03-05T07:59:06.746Z,55.00
2023-03-05T08:01:33.226Z,54.94
2023-03-05T08:03:59.702Z,54.80
2023-03-05T08:06:26.215Z,54.70
2023-03-05T08:08:52.694Z,55.04
2023-03-05T08:11:19.081Z,54.91
2023-03-05T08:13:45.505Z,55.20
2023-03-05T08:16:11.987Z,54.61
2023-03-05T08:18:38.378Z,54.49
2023-03-05T08:21:05.023Z,54.48
2023-03-05T08:23:31.445Z,54.09
2023-03-05T08:25:57.913Z,54.03
2023-03-05T08:28:24.339Z,53.83
2023-03-05T08:30:50.783Z,53.98
2023-03-05T08:33:17.238Z,53.99
2023-03-05T08:35:43.744Z,53.37
2023-03-05T08:38:10.143Z,53.46
2023-03-05T08:40:36.526Z,52.82
2023-03-05T08:43:02.920Z,53.39
2023-03-05T08:45:29.518Z,54.15
2023-03-05T08:47:55.999Z,53.80
2023-03-05T08:50:22.433Z,53.07
2023-03-05T08:52:48.912Z,52.87
2023-03-05T08:55:15.468Z,52.58
2023-03-05T08:57:41.875Z,52.39
2023-03-05T09:00:08.293Z,51.83
2023-03-05T09:02:34.883Z,51.71
2023-03-05T09:05:01.308Z,52.36
2023-03-05T09:07:27.752Z,53.01
2023-03-05T09:09:54.149Z,52.45
2023-03-05T09:12:20.635Z,51.66
2023-03-05T09:14:47.066Z,51.72
2023-03-05T09:17:13.450Z,51.27
2023-03-05T09:19:39.881Z,50.29
2023-03-05T09:22:06.353Z,50.11
2023-03-05T09:24:32.882Z,49.95
2023-03-05T09:26:59.291Z,50.22
2023-03-05T09:29:25.754Z,49.76
2023-03-05T09:31:52.207Z,49.77
2023-03-05T09:34:18.933Z,50.50
2023-03-05T09:36:45.370Z,49.88
2023-03-05T09:39:11.754Z,50.59
2023-03-05T09:41:38.383Z,50.67
2023-03-05T09:44:07.728Z,49.58
2023-03-05T09:46:34.146Z,49.59
2023-03-05T09:49:00.537Z,48.80
2023-03-05T09:51:27.163Z,48.26
2023-03-05T09:53:53.737Z,48.74
2023-03-05T09:56:20.282Z,48.55
2023-03-05T09:58:46.692Z,48.30
2023-03-05T10:01:13.075Z,47.85
2023-03-05T10:03:39.656Z,48.05
2023-03-05T10:06:06.387Z,47.71
2023-03-05T10:08:32.881Z,48.06
2023-03-05T10:10:59.374Z,48.51
2023-03-05T10:13:25.905Z,47.81
2023-03-05T10:15:52.346Z,48.16
2023-03-05T10:18:18.974Z,48.03
2023-03-05T10:20:45.422Z,47.15
2023-03-05T10:23:11.866Z,47.62
2023-03-05T10:25:38.525Z,47.28
2023-03-05T10:28:04.911Z,47.49
2023-03-05T10:30:31.323Z,46.93
2023-03-05T10:32:57.953Z,46.91
2023-03-05T10:35:24.669Z,47.02
2023-03-05T10:37:51.850Z,46.35
2023-03-05T10:40:18.414Z,46.25
2023-03-05T10:42:44.810Z,46.87
2023-03-05T10:45:13.217Z,46.58
2023-03-05T10:47:40.323Z,46.57
2023-03-05T10:50:06.762Z,46.04
2023-03-05T10:52:33.526Z,46.11
2023-03-05T10:55:00.022Z,46.22
2023-03-05T10:57:26.534Z,46.33
2023-03-05T10:59:53.018Z,46.16
2023-03-05T11:02:19.438Z,45.52
2023-03-05T11:04:46.062Z,45.73
2023-03-05T11:07:12.463Z,45.27
2023-03-05T11:09:39.048Z,46.14
2023-03-05T11:12:05.624Z,45.26
2023-03-05T11:14:32.229Z,45.83
2023-03-05T11:16:58.633Z,45.81
2023-03-05T11:19:25.096Z,46.18
2023-03-05T11:21:51.808Z,47.08
2023-03-05T11:24:18.314Z,47.41
2023-03-05T11:26:44.860Z,45.67
2023-03-05T11:29:11.296Z,45.26
2023-03-05T11:31:37.732Z,46.08
2023-03-05T11:34:05.920Z,45.65
2023-03-05T11:36:32.441Z,44.95
2023-03-05T11:39:01.052Z,44.73
2023-03-05T11:41:27.446Z,44.59
2023-03-05T11:43:53.898Z,45.16
2023-03-05T11:46:20.551Z,43.90
2023-03-05T11:48:47.050Z,43.49
2023-03-05T11:51:13.444Z,43.37
2023-03-05T11:53:39.891Z,43.61
2023-03-05T11:56:06.403Z,43.38
2023-03-05T11:58:32.894Z,44.10
2023-03-05T12:00:59.496Z,43.87
2023-03-05T12:03:25.927Z,44.98
2023-03-05T12:05:52.351Z,44.22
2023-03-05T12:08:18.766Z,45.10
2023-03-05T12:10:45.372Z,44.72
2023-03-05T12:13:11.773Z,44.12
2023-03-05T12:15:38.295Z,44.03
2023-03-05T12:18:04.729Z,43.10
2023-03-05T12:20:31.320Z,43.38
2023-03-05T12:22:57.776Z,43.10
2023-03-05T12:25:24.233Z,43.64
2023-03-05T12:27:50.600Z,43.58
2023-03-05T12:30:16.991Z,42.94
2023-03-05T12:32:43.540Z,43.19
2023-03-05T12:35:10.054Z,43.87
2023-03-05T12:37:36.460Z,43.74
2023-03-05T12:40:02.833Z,44.13
2023-03-05T12:42:29.235Z,44.01
2023-03-05T12:44:55.617Z,44.35
2023-03-05T12:47:22.064Z,44.35
2023-03-05T12:49:48.496Z,43.64
2023-03-05T12:52:15.837Z,43.31
2023-03-05T12:54:42.266Z,43.81
2023-03-05T12:57:08.690Z,42.85
2023-03-05T12:59:35.090Z,42.52
2023-03-05T13:02:01.714Z,42.60
2023-03-05T13:04:28.452Z,42.44
2023-03-05T13:06:54.900Z,42.78
2023-03-05T13:09:21.391Z,43.05
2023-03-05T13:11:47.906Z,43.33
2023-03-05T13:14:14.589Z,42.90
2023-03-05T13:16:41.081Z,43.35
2023-03-05T13:19:07.721Z,42.94
2023-03-05T13:21:34.391Z,43.38
2023-03-05T13:24:00.807Z,42.91
2023-03-05T13:26:27.215Z,43.56
2023-03-05T13:28:53.604Z,44.08
2023-03-05T13:31:20.149Z,43.56
2023-03-05T13:33:46.583Z,44.10
2023-03-05T13:36:13.163Z,44.24
2023-03-05T13:38:39.576Z,43.96
2023-03-05T13:41:06.006Z,43.75
2023-03-05T13:43:32.413Z,44.25
2023-03-05T13:46:02.057Z,43.96
2023-03-05T13:48:28.564Z,43.72
2023-03-05T13:50:55.077Z,43.76
2023-03-05T13:53:21.839Z,43.70
2023-03-05T13:55:48.324Z,43.88
2023-03-05T13:58:14.700Z,43.68
2023-03-05T14:00:41.236Z,43.35
2023-03-05T14:03:07.634Z,43.68
2023-03-05T14:05:34.032Z,43.10
2023-03-05T14:08:00.457Z,42.54
2023-03-05T14:10:26.958Z,43.51
2023-03-05T14:12:53.438Z,43.40
2023-03-05T14:15:19.869Z,43.28
2023-03-05T14:17:46.976Z,42.66
2023-03-05T14:20:13.414Z,43.22
2023-03-05T14:22:39.862Z,43.11
2023-03-05T14:25:06.270Z,44.29
2023-03-05T14:27:32.738Z,43.79
2023-03-05T14:29:59.258Z,43.75
2023-03-05T14:32:25.706Z,44.05
2023-03-05T14:34:52.085Z,43.99
2023-03-05T14:37:18.723Z,44.71
2023-03-05T14:39:46.514Z,43.83
2023-03-05T14:42:13.193Z,43.79
2023-03-05T14:44:39.643Z,44.37
2023-03-05T14:47:06.112Z,44.47
2023-03-05T14:49:32.621Z,43.80
2023-03-05T14:51:59.305Z,43.98
2023-03-05T14:54:25.885Z,44.25
2023-03-05T14:56:52.315Z,43.96
2023-03-05T14:59:18.734Z,44.28
2023-03-05T15:01:45.197Z,43.60
2023-03-05T15:04:11.860Z,44.19
2023-03-05T15:06:38.252Z,44.03
2023-03-05T15:09:04.695Z,43.33
2023-03-05T15:11:31.117Z,43.38
2023-03-05T15:13:57.725Z,42.35
2023-03-05T15:16:24.380Z,42.31
2023-03-05T15:18:50.936Z,41.69
2023-03-05T15:21:17.436Z,41.75
2023-03-05T15:23:43.892Z,41.56
2023-03-05T15:26:10.298Z,41.14
2023-03-05T15:28:36.817Z,41.09
2023-03-05T15:31:03.281Z,40.48
2023-03-05T15:33:29.748Z,40.39
2023-03-05T15:35:56.192Z,39.87
2023-03-05T15:38:22.670Z,41.14
2023-03-05T15:40:49.103Z,40.72
2023-03-05T15:43:15.549Z,41.25
2023-03-05T15:45:41.958Z,40.06
2023-03-05T15:48:08.467Z,39.71
2023-03-05T15:50:35.041Z,40.05
2023-03-05T15:53:01.830Z,40.13
2023-03-05T15:55:28.237Z,40.03
2023-03-05T15:57:54.656Z,39.82
2023-03-05T16:00:22.092Z,40.68
2023-03-05T16:02:50.134Z,41.22
2023-03-05T16:05:16.643Z,41.10
2023-03-05T16:07:43.240Z,41.15
2023-03-05T16:10:09.717Z,42.22
2023-03-05T16:12:36.270Z,42.87
2023-03-05T16:15:02.903Z,43.26
2023-03-05T16:17:29.531Z,43.80
2023-03-05T16:19:55.992Z,44.14
2023-03-05T16:22:22.686Z,43.75
2023-03-05T16:24:49.466Z,43.54
2023-03-05T16:27:15.972Z,43.64
2023-03-05T16:29:42.721Z,43.11
2023-03-05T16:32:09.817Z,43.70
2023-03-05T16:34:36.513Z,43.83
2023-03-05T16:37:03.286Z,43.08
2023-03-05T16:39:29.698Z,43.90
2023-03-05T16:41:56.110Z,44.52
2023-03-05T16:44:22.618Z,44.75
2023-03-05T16:46:49.324Z,44.76
2023-03-05T16:49:15.834Z,44.89
2023-03-05T16:51:42.503Z,45.43
2023-03-05T16:54:10.161Z,46.17
2023-03-05T16:56:37.086Z,45.98
2023-03-05T16:59:03.564Z,46.89
2023-03-05T17:01:30.072Z,46.85
2023-03-05T17:03:56.529Z,46.58
2023-03-05T17:06:23.072Z,46.74
2023-03-05T17:08:49.603Z,47.06
2023-03-05T17:11:16.063Z,46.64
2023-03-05T17:13:42.701Z,46.75
2023-03-05T17:16:09.231Z,46.72
2023-03-05T17:18:35.644Z,46.94
2023-03-05T17:21:02.402Z,47.30
2023-03-05T17:23:28.895Z,47.15
2023-03-05T17:25:55.309Z,47.19
2023-03-05T17:28:21.693Z,47.45
2023-03-05T17:30:48.110Z,47.01
2023-03-05T17:33:14.504Z,47.10
2023-03-05T17:35:40.961Z,46.94
2023-03-05T17:38:07.483Z,47.10
2023-03-05T17:40:33.997Z,47.38
2023-03-05T17:43:02.467Z,47.13
2023-03-05T17:45:28.945Z,47.56
2023-03-05T17:47:56.289Z,48.33
2023-03-05T17:50:24.270Z,49.44
2023-03-05T17:52:50.742Z,48.96
2023-03-05T17:55:17.168Z,49.40
2023-03-05T17:57:43.818Z,49.56
2023-03-05T18:00:10.242Z,49.69
2023-03-05T18:02:36.648Z,49.57
2023-03-05T18:05:04.220Z,48.89
2023-03-05T18:07:30.868Z,48.68
2023-03-05T18:09:57.636Z,48.47
2023-03-05T18:12:24.398Z,48.34
2023-03-05T18:14:50.837Z,47.33
2023-03-05T18:17:17.320Z,47.34
2023-03-05T18:19:43.873Z,48.12
2023-03-05T18:22:10.337Z,46.99
2023-03-05T18:24:36.757Z,49.71
2023-03-05T18:27:03.258Z,48.38
2023-03-05T18:29:29.738Z,48.33
2023-03-05T18:31:56.314Z,48.62
2023-03-05T18:34:22.898Z,47.66
2023-03-05T18:36:49.403Z,47.99
2023-03-05T18:39:15.897Z,48.69
2023-03-05T18:41:44.650Z,48.63
2023-03-05T18:44:11.587Z,48.91
2023-03-05T18:46:38.494Z,48.48
2023-03-05T18:49:05.163Z,47.37
2023-03-05T18:51:32.033Z,47.10
2023-03-05T18:53:58.877Z,47.60
2023-03-05T18:56:25.464Z,48.33
2023-03-05T18:58:52.008Z,48.67
2023-03-05T19:01:18.461Z,47.96
2023-03-05T19:03:45.150Z,48.36
2023-03-05T19:06:13.269Z,48.64
2023-03-05T19:08:39.859Z,48.60
2023-03-05T19:11:06.266Z,49.36
2023-03-05T19:13:32.830Z,50.14
2023-03-05T19:15:59.510Z,51.00
2023-03-05T19:18:26.003Z,51.06
2023-03-05T19:20:52.577Z,51.18
2023-03-05T19:23:19.250Z,50.67
2023-03-05T19:25:45.790Z,50.10
2023-03-05T19:28:14.219Z,50.19
2023-03-05T19:30:40.701Z,51.15
2023-03-05T19:33:07.338Z,51.62
2023-03-05T19:35:33.950Z,52.92
2023-03-05T19:38:00.556Z,52.92
2023-03-05T19:40:27.141Z,53.24
2023-03-05T19:42:56.662Z,52.88
2023-03-05T19:45:23.388Z,52.33
2023-03-05T19:47:50.038Z,51.12
2023-03-05T19:50:21.752Z,52.32
2023-03-05T19:52:48.214Z,52.19
2023-03-05T19:55:16.986Z,52.91
2023-03-05T19:57:43.491Z,52.50
2023-03-05T20:00:10.287Z,51.91
2023-03-05T20:02:36.883Z,53.27
2023-03-05T20:05:03.563Z,53.60
2023-03-05T20:07:30.245Z,54.56
2023-03-05T20:09:56.726Z,54.52
2023-03-05T20:12:23.497Z,53.32
2023-03-05T20:14:50.059Z,52.78
2023-03-05T20:17:19.574Z,53.28
2023-03-05T20:19:46.103Z,53.44
2023-03-05T20:22:12.686Z,53.62
2023-03-05T20:24:39.188Z,54.14
2023-03-05T20:27:05.755Z,54.50
2023-03-05T20:29:32.293Z,54.11
2023-03-05T20:32:01.830Z,53.57
2023-03-05T20:34:28.303Z,54.48
2023-03-05T20:36:54.837Z,55.08
2023-03-05T20:39:21.334Z,54.99
2023-03-05T20:41:59.511Z,54.14
2023-03-05T20:44:29.106Z,54.64
2023-03-05T20:46:57.250Z,54.50
2023-03-05T20:49:26.704Z,54.16
2023-03-05T20:51:55.346Z,54.09
2023-03-05T20:54:22.084Z,52.76
2023-03-05T20:56:48.764Z,52.60
2023-03-05T20:59:15.558Z,54.39
2023-03-05T21:01:42.470Z,54.83
2023-03-05T21:04:09.170Z,55.01
2023-03-05T21:06:36.325Z,55.79
2023-03-05T21:09:02.946Z,55.80
2023-03-05T21:11:29.724Z,56.03
2023-03-05T21:13:56.382Z,56.36
2023-03-05T21:16:23.443Z,56.20
2023-03-05T21:18:50.124Z,55.93
2023-03-05T21:21:16.545Z,55.00
2023-03-05T21:23:43.227Z,54.31
2023-03-05T21:26:10.027Z,53.66
2023-03-05T21:28:36.494Z,55.15
2023-03-05T21:31:05.607Z,54.83
2023-03-05T21:33:32.213Z,56.36
2023-03-05T21:35:58.967Z,56.44
2023-03-05T21:38:25.411Z,56.42
2023-03-05T21:40:52.486Z,56.95
2023-03-05T21:43:19.560Z,57.46
2023-03-05T21:45:46.131Z,57.70
2023-03-05T21:48:13.131Z,57.07
2023-03-05T21:50:39.902Z,56.65
2023-03-05T21:53:06.908Z,56.17
2023-03-05T21:55:33.650Z,56.31
2023-03-05T21:58:00.278Z,56.46
2023-03-05T22:00:26.729Z,57.21
2023-03-05T22:02:56.181Z,58.19
2023-03-05T22:05:23.150Z,58.82
2023-03-05T22:07:49.757Z,58.82
2023-03-05T22:10:16.521Z,58.69
2023-03-05T22:12:43.050Z,58.34
2023-03-05T22:15:09.525Z,58.38
2023-03-05T22:17:37.900Z,58.17
2023-03-05T22:20:04.410Z,58.40
2023-03-05T22:22:31.042Z,57.82
2023-03-05T22:24:57.611Z,56.58
2023-03-05T22:27:29.069Z,55.14
2023-03-05T22:29:55.763Z,54.77
2023-03-05T22:32:22.263Z,55.41
2023-03-05T22:34:48.759Z,55.15
2023-03-05T22:37:15.793Z,54.42
2023-03-05T22:39:42.252Z,55.91
2023-03-05T22:42:08.685Z,56.74
2023-03-05T22:44:41.625Z,56.53
2023-03-05T22:47:08.090Z,56.56
2023-03-05T22:49:34.858Z,57.00
2023-03-05T22:52:01.573Z,57.48
2023-03-05T22:54:28.397Z,57.93
2023-03-05T22:56:55.110Z,57.21
2023-03-05T22:59:21.776Z,57.89
2023-03-05T23:01:48.508Z,58.10
2023-03-05T23:04:16.205Z,59.18
2023-03-05T23:06:43.363Z,59.16
2023-03-05T23:09:10.147Z,58.79
2023-03-05T23:11:36.773Z,58.12
2023-03-05T23:14:03.466Z,57.90
2023-03-05T23:16:29.994Z,58.76
2023-03-05T23:18:56.754Z,59.40
2023-03-05T23:21:24.090Z,58.41
2023-03-05T23:23:50.958Z,57.57
2023-03-05T23:26:17.999Z,57.71
2023-03-05T23:28:44.816Z,56.81
2023-03-05T23:31:11.512Z,56.50
2023-03-05T23:33:38.091Z,55.81
2023-03-05T23:36:04.732Z,55.79
2023-03-05T23:38:31.154Z,55.59
2023-03-05T23:41:00.789Z,55.06
2023-03-05T23:43:29.498Z,56.16
2023-03-05T23:45:56.170Z,57.09
2023-03-05T23:48:22.833Z,56.50
2023-03-05T23:50:49.466Z,56.42
2023-03-05T23:53:15.856Z,56.93
2023-03-05T23:55:42.256Z,58.39
2023-03-05T23:58:10.817Z,59.43
